sensor_id;sensor_type;location;lat;lon;timestamp;temperature;humidity
11965;DHT22;6042;41.326;19.826;2023-01-10T00:02:11;10.90;99.90
11965;DHT22;6042;41.326;19.826;2023-01-10T00:04:40;10.80;99.90
11965;DHT22;6042;41.326;19.826;2023-01-10T00:07:10;10.90;99.90
11965;DHT22;6042;41.326;19.826;2023-01-10T00:09:39;10.90;99.90
11965;DHT22;6042;41.326;19.826;2023-01-10T00:12:07;10.90;99.90
11965;DHT22;6042;41.326;19.826;2023-01-10T00:14:53;11.00;99.90
11965;DHT22;6042;41.326;19.826;2023-01-10T00:17:21;10.90;99.90
11965;DHT22;6042;41.326;19.826;2023-01-10T00:19:50;11.00;99.90
11965;DHT22;6042;41.326;19.826;2023-01-10T00:22:20;10.90;99.90
11965;DHT22;6042;41.326;19.826;2023-01-10T00:24:51;11.00;99.90
11965;DHT22;6042;41.326;19.826;2023-01-10T00:27:19;11.00;99.90
11965;DHT22;6042;41.326;19.826;2023-01-10T00:29:50;11.00;99.90
11965;DHT22;6042;41.326;19.826;2023-01-10T00:32:20;11.00;99.90
11965;DHT22;6042;41.326;19.826;2023-01-10T00:34:49;11.00;99.90
11965;DHT22;6042;41.326;19.826;2023-01-10T00:37:17;11.00;99.90
11965;DHT22;6042;41.326;19.826;2023-01-10T00:39:47;11.00;99.90
11965;DHT22;6042;41.326;19.826;2023-01-10T00:42:16;11.00;99.90
11965;DHT22;6042;41.326;19.826;2023-01-10T00:45:03;11.00;99.90
11965;DHT22;6042;41.326;19.826;2023-01-10T00:47:32;11.00;99.90
11965;DHT22;6042;41.326;19.826;2023-01-10T00:50:00;11.00;99.90
11965;DHT22;6042;41.326;19.826;2023-01-10T00:52:30;11.00;99.90
11965;DHT22;6042;41.326;19.826;2023-01-10T00:55:00;11.00;99.90
11965;DHT22;6042;41.326;19.826;2023-01-10T00:57:29;10.90;99.90
11965;DHT22;6042;41.326;19.826;2023-01-10T00:59:57;10.90;99.90
11965;DHT22;6042;41.326;19.826;2023-01-10T01:02:26;10.90;99.90
11965;DHT22;6042;41.326;19.826;2023-01-10T01:04:54;10.90;99.90
11965;DHT22;6042;41.326;19.826;2023-01-10T01:07:23;11.00;99.90
11965;DHT22;6042;41.326;19.826;2023-01-10T01:09:51;11.00;99.90
11965;DHT22;6042;41.326;19.826;2023-01-10T01:12:50;11.00;99.90
11965;DHT22;6042;41.326;19.826;2023-01-10T01:15:18;11.10;99.90
11965;DHT22;6042;41.326;19.826;2023-01-10T01:17:47;11.00;99.90
11965;DHT22;6042;41.326;19.826;2023-01-10T01:20:16;11.00;99.90
11965;DHT22;6042;41.326;19.826;2023-01-10T01:22:46;11.00;99.90
11965;DHT22;6042;41.326;19.826;2023-01-10T01:25:15;11.00;99.90
11965;DHT22;6042;41.326;19.826;2023-01-10T01:27:43;11.00;99.90
11965;DHT22;6042;41.326;19.826;2023-01-10T01:30:14;11.00;99.90
11965;DHT22;6042;41.326;19.826;2023-01-10T01:32:42;10.90;99.90
11965;DHT22;6042;41.326;19.826;2023-01-10T01:35:13;11.00;99.90
11965;DHT22;6042;41.326;19.826;2023-01-10T01:37:43;11.00;99.90
11965;DHT22;6042;41.326;19.826;2023-01-10T01:40:13;11.00;99.90
11965;DHT22;6042;41.326;19.826;2023-01-10T01:42:42;11.00;99.90
11965;DHT22;6042;41.326;19.826;2023-01-10T01:45:35;11.00;99.90
11965;DHT22;6042;41.326;19.826;2023-01-10T01:48:20;11.00;99.90
11965;DHT22;6042;41.326;19.826;2023-01-10T01:50:54;11.10;99.90
11965;DHT22;6042;41.326;19.826;2023-01-10T01:53:29;11.00;99.90
11965;DHT22;6042;41.326;19.826;2023-01-10T01:56:02;11.00;99.90
11965;DHT22;6042;41.326;19.826;2023-01-10T01:58:38;11.10;99.90
11965;DHT22;6042;41.326;19.826;2023-01-10T02:01:11;11.10;99.90
11965;DHT22;6042;41.326;19.826;2023-01-10T02:03:41;11.10;99.90
11965;DHT22;6042;41.326;19.826;2023-01-10T02:06:12;11.00;99.90
11965;DHT22;6042;41.326;19.826;2023-01-10T02:08:46;11.10;99.90
11965;DHT22;6042;41.326;19.826;2023-01-10T02:11:17;11.10;99.90
11965;DHT22;6042;41.326;19.826;2023-01-10T02:13:49;11.20;99.90
11965;DHT22;6042;41.326;19.826;2023-01-10T02:16:20;11.10;99.90
11965;DHT22;6042;41.326;19.826;2023-01-10T02:18:49;11.10;99.90
11965;DHT22;6042;41.326;19.826;2023-01-10T02:21:36;11.00;99.90
11965;DHT22;6042;41.326;19.826;2023-01-10T02:27:13;11.20;99.90
11965;DHT22;6042;41.326;19.826;2023-01-10T02:32:56;11.40;99.90
11965;DHT22;6042;41.326;19.826;2023-01-10T02:35:48;11.40;99.90
11965;DHT22;6042;41.326;19.826;2023-01-10T02:38:31;11.40;99.90
11965;DHT22;6042;41.326;19.826;2023-01-10T02:41:07;11.50;99.90
11965;DHT22;6042;41.326;19.826;2023-01-10T02:43:40;11.50;99.90
11965;DHT22;6042;41.326;19.826;2023-01-10T02:46:13;11.40;99.90
11965;DHT22;6042;41.326;19.826;2023-01-10T02:48:44;11.40;99.90
11965;DHT22;6042;41.326;19.826;2023-01-10T02:51:17;11.50;99.90
11965;DHT22;6042;41.326;19.826;2023-01-10T02:53:48;11.50;99.90
11965;DHT22;6042;41.326;19.826;2023-01-10T02:56:38;11.50;99.90
11965;DHT22;6042;41.326;19.826;2023-01-10T02:59:40;11.50;99.90
11965;DHT22;6042;41.326;19.826;2023-01-10T03:02:21;11.50;99.90
11965;DHT22;6042;41.326;19.826;2023-01-10T03:05:02;11.50;99.90
11965;DHT22;6042;41.326;19.826;2023-01-10T03:07:36;11.50;99.90
11965;DHT22;6042;41.326;19.826;2023-01-10T03:10:09;11.50;99.90
11965;DHT22;6042;41.326;19.826;2023-01-10T03:12:45;11.60;99.90
11965;DHT22;6042;41.326;19.826;2023-01-10T03:15:18;11.50;99.90
11965;DHT22;6042;41.326;19.826;2023-01-10T03:17:50;11.50;99.90
11965;DHT22;6042;41.326;19.826;2023-01-10T03:20:23;11.50;99.90
11965;DHT22;6042;41.326;19.826;2023-01-10T03:22:54;11.50;99.90
11965;DHT22;6042;41.326;19.826;2023-01-10T03:25:27;11.50;99.90
11965;DHT22;6042;41.326;19.826;2023-01-10T03:28:04;11.50;99.90
11965;DHT22;6042;41.326;19.826;2023-01-10T03:30:39;11.50;99.90
11965;DHT22;6042;41.326;19.826;2023-01-10T03:33:10;11.50;99.90
11965;DHT22;6042;41.326;19.826;2023-01-10T03:35:49;11.50;99.90
11965;DHT22;6042;41.326;19.826;2023-01-10T03:38:27;11.50;99.90
11965;DHT22;6042;41.326;19.826;2023-01-10T03:41:02;11.50;99.90
11965;DHT22;6042;41.326;19.826;2023-01-10T03:43:42;11.50;99.90
11965;DHT22;6042;41.326;19.826;2023-01-10T03:46:32;11.50;99.90
11965;DHT22;6042;41.326;19.826;2023-01-10T03:49:04;11.50;99.90
11965;DHT22;6042;41.326;19.826;2023-01-10T03:51:35;11.50;99.90
11965;DHT22;6042;41.326;19.826;2023-01-10T03:54:05;11.50;99.90
11965;DHT22;6042;41.326;19.826;2023-01-10T03:56:43;11.50;99.90
11965;DHT22;6042;41.326;19.826;2023-01-10T03:59:13;11.50;99.90
11965;DHT22;6042;41.326;19.826;2023-01-10T04:01:42;11.40;99.90
11965;DHT22;6042;41.326;19.826;2023-01-10T04:04:10;11.30;99.90
11965;DHT22;6042;41.326;19.826;2023-01-10T04:06:40;11.40;99.90
11965;DHT22;6042;41.326;19.826;2023-01-10T04:09:09;11.30;99.90
11965;DHT22;6042;41.326;19.826;2023-01-10T04:11:38;11.30;99.90
11965;DHT22;6042;41.326;19.826;2023-01-10T04:14:06;11.20;99.90
11965;DHT22;6042;41.326;19.826;2023-01-10T04:16:35;11.20;99.90
11965;DHT22;6042;41.326;19.826;2023-01-10T04:19:03;11.20;99.90
11965;DHT22;6042;41.326;19.826;2023-01-10T04:21:32;11.20;99.90
11965;DHT22;6042;41.326;19.826;2023-01-10T04:24:02;11.20;99.90
11965;DHT22;6042;41.326;19.826;2023-01-10T04:26:30;11.30;99.90
11965;DHT22;6042;41.326;19.826;2023-01-10T04:28:59;11.20;99.90
11965;DHT22;6042;41.326;19.826;2023-01-10T04:31:27;11.20;99.90
11965;DHT22;6042;41.326;19.826;2023-01-10T04:33:56;11.20;99.90
11965;DHT22;6042;41.326;19.826;2023-01-10T04:36:24;11.30;99.90
11965;DHT22;6042;41.326;19.826;2023-01-10T04:38:55;11.30;99.90
11965;DHT22;6042;41.326;19.826;2023-01-10T04:41:25;11.30;99.90
11965;DHT22;6042;41.326;19.826;2023-01-10T04:43:54;11.30;99.90
11965;DHT22;6042;41.326;19.826;2023-01-10T04:46:22;11.30;99.90
11965;DHT22;6042;41.326;19.826;2023-01-10T04:48:51;11.30;99.90
11965;DHT22;6042;41.326;19.826;2023-01-10T04:51:19;11.20;99.90
11965;DHT22;6042;41.326;19.826;2023-01-10T04:53:48;11.10;99.90
11965;DHT22;6042;41.326;19.826;2023-01-10T04:56:18;11.00;99.90
11965;DHT22;6042;41.326;19.826;2023-01-10T04:58:49;11.00;99.90
11965;DHT22;6042;41.326;19.826;2023-01-10T05:01:21;11.00;99.90
11965;DHT22;6042;41.326;19.826;2023-01-10T05:03:53;11.00;99.90
11965;DHT22;6042;41.326;19.826;2023-01-10T05:06:23;11.00;99.90
11965;DHT22;6042;41.326;19.826;2023-01-10T05:08:51;11.00;99.90
11965;DHT22;6042;41.326;19.826;2023-01-10T05:11:20;10.90;99.90
11965;DHT22;6042;41.326;19.826;2023-01-10T05:13:50;10.90;99.90
11965;DHT22;6042;41.326;19.826;2023-01-10T05:16:18;10.90;99.90
11965;DHT22;6042;41.326;19.826;2023-01-10T05:18:47;10.90;99.90
11965;DHT22;6042;41.326;19.826;2023-01-10T05:21:17;10.80;99.90
11965;DHT22;6042;41.326;19.826;2023-01-10T05:23:45;10.80;99.90
11965;DHT22;6042;41.326;19.826;2023-01-10T05:26:16;10.90;99.90
11965;DHT22;6042;41.326;19.826;2023-01-10T05:28:45;10.90;99.90
11965;DHT22;6042;41.326;19.826;2023-01-10T05:31:17;10.90;99.90
11965;DHT22;6042;41.326;19.826;2023-01-10T05:33:48;10.90;99.90
11965;DHT22;6042;41.326;19.826;2023-01-10T05:36:17;10.90;99.90
11965;DHT22;6042;41.326;19.826;2023-01-10T05:38:46;10.90;99.90
11965;DHT22;6042;41.326;19.826;2023-01-10T05:41:14;10.90;99.90
11965;DHT22;6042;41.326;19.826;2023-01-10T05:43:43;10.90;99.90
11965;DHT22;6042;41.326;19.826;2023-01-10T05:46:11;10.90;99.90
11965;DHT22;6042;41.326;19.826;2023-01-10T05:48:41;10.90;99.90
11965;DHT22;6042;41.326;19.826;2023-01-10T05:51:10;10.90;99.90
11965;DHT22;6042;41.326;19.826;2023-01-10T05:53:38;11.00;99.90
11965;DHT22;6042;41.326;19.826;2023-01-10T05:56:08;10.90;99.90
11965;DHT22;6042;41.326;19.826;2023-01-10T05:58:37;10.90;99.90
11965;DHT22;6042;41.326;19.826;2023-01-10T06:01:06;11.00;99.90
11965;DHT22;6042;41.326;19.826;2023-01-10T06:03:35;10.90;99.90
11965;DHT22;6042;41.326;19.826;2023-01-10T06:06:06;10.90;99.90
11965;DHT22;6042;41.326;19.826;2023-01-10T06:08:34;10.90;99.90
11965;DHT22;6042;41.326;19.826;2023-01-10T06:11:04;10.90;99.90
11965;DHT22;6042;41.326;19.826;2023-01-10T06:13:32;10.90;99.90
11965;DHT22;6042;41.326;19.826;2023-01-10T06:16:01;10.90;99.90
11965;DHT22;6042;41.326;19.826;2023-01-10T06:18:30;10.90;99.90
11965;DHT22;6042;41.326;19.826;2023-01-10T06:20:58;10.90;99.90
11965;DHT22;6042;41.326;19.826;2023-01-10T06:23:28;10.90;99.90
11965;DHT22;6042;41.326;19.826;2023-01-10T06:25:56;10.90;99.90
11965;DHT22;6042;41.326;19.826;2023-01-10T06:28:25;10.90;99.90
11965;DHT22;6042;41.326;19.826;2023-01-10T06:30:53;11.00;99.90
11965;DHT22;6042;41.326;19.826;2023-01-10T06:33:22;11.00;99.90
11965;DHT22;6042;41.326;19.826;2023-01-10T06:35:50;11.10;99.90
11965;DHT22;6042;41.326;19.826;2023-01-10T06:38:19;11.10;99.90
11965;DHT22;6042;41.326;19.826;2023-01-10T06:40:49;11.10;99.90
11965;DHT22;6042;41.326;19.826;2023-01-10T06:43:17;11.20;99.90
11965;DHT22;6042;41.326;19.826;2023-01-10T06:45:46;11.30;99.90
11965;DHT22;6042;41.326;19.826;2023-01-10T06:48:14;11.30;99.90
11965;DHT22;6042;41.326;19.826;2023-01-10T06:50:43;11.40;99.90
11965;DHT22;6042;41.326;19.826;2023-01-10T06:53:11;11.40;99.90
11965;DHT22;6042;41.326;19.826;2023-01-10T06:55:40;11.50;99.90
11965;DHT22;6042;41.326;19.826;2023-01-10T06:58:09;11.60;99.90
11965;DHT22;6042;41.326;19.826;2023-01-10T07:00:38;11.70;99.90
11965;DHT22;6042;41.326;19.826;2023-01-10T07:03:08;11.80;99.90
11965;DHT22;6042;41.326;19.826;2023-01-10T07:05:37;12.00;99.90
11965;DHT22;6042;41.326;19.826;2023-01-10T07:08:05;12.00;99.90
11965;DHT22;6042;41.326;19.826;2023-01-10T07:10:34;12.10;99.90
11965;DHT22;6042;41.326;19.826;2023-01-10T07:13:02;11.90;99.90
11965;DHT22;6042;41.326;19.826;2023-01-10T07:15:32;11.50;99.90
11965;DHT22;6042;41.326;19.826;2023-01-10T07:18:01;11.20;99.90
11965;DHT22;6042;41.326;19.826;2023-01-10T07:20:29;11.00;99.90
11965;DHT22;6042;41.326;19.826;2023-01-10T07:22:59;10.90;99.90
11965;DHT22;6042;41.326;19.826;2023-01-10T07:25:28;10.80;99.90
11965;DHT22;6042;41.326;19.826;2023-01-10T07:27:57;10.70;99.90
11965;DHT22;6042;41.326;19.826;2023-01-10T07:30:25;10.60;99.90
11965;DHT22;6042;41.326;19.826;2023-01-10T07:32:56;10.60;99.90
11965;DHT22;6042;41.326;19.826;2023-01-10T07:35:24;10.60;99.90
11965;DHT22;6042;41.326;19.826;2023-01-10T07:37:53;10.60;99.90
11965;DHT22;6042;41.326;19.826;2023-01-10T07:40:24;10.50;99.90
11965;DHT22;6042;41.326;19.826;2023-01-10T07:42:56;10.50;99.90
11965;DHT22;6042;41.326;19.826;2023-01-10T07:45:27;10.50;99.90
11965;DHT22;6042;41.326;19.826;2023-01-10T07:47:58;10.40;99.90
11965;DHT22;6042;41.326;19.826;2023-01-10T07:50:29;10.40;99.90
11965;DHT22;6042;41.326;19.826;2023-01-10T07:52:58;10.30;99.90
11965;DHT22;6042;41.326;19.826;2023-01-10T07:55:28;10.20;99.90
11965;DHT22;6042;41.326;19.826;2023-01-10T07:57:56;10.10;99.90
11965;DHT22;6042;41.326;19.826;2023-01-10T08:00:25;10.10;99.90
11965;DHT22;6042;41.326;19.826;2023-01-10T08:02:54;10.00;99.90
11965;DHT22;6042;41.326;19.826;2023-01-10T08:05:25;10.10;99.90
11965;DHT22;6042;41.326;19.826;2023-01-10T08:07:54;10.10;99.90
11965;DHT22;6042;41.326;19.826;2023-01-10T08:10:26;10.20;99.90
11965;DHT22;6042;41.326;19.826;2023-01-10T08:12:55;10.20;99.90
11965;DHT22;6042;41.326;19.826;2023-01-10T08:15:30;10.20;99.90
11965;DHT22;6042;41.326;19.826;2023-01-10T08:18:00;10.20;99.90
11965;DHT22;6042;41.326;19.826;2023-01-10T08:20:32;10.20;99.90
11965;DHT22;6042;41.326;19.826;2023-01-10T08:23:00;10.10;99.90
11965;DHT22;6042;41.326;19.826;2023-01-10T08:25:30;10.20;99.90
11965;DHT22;6042;41.326;19.826;2023-01-10T08:27:58;10.20;99.90
11965;DHT22;6042;41.326;19.826;2023-01-10T08:30:27;10.40;99.90
11965;DHT22;6042;41.326;19.826;2023-01-10T08:32:56;10.60;99.90
11965;DHT22;6042;41.326;19.826;2023-01-10T08:35:24;10.70;99.90
11965;DHT22;6042;41.326;19.826;2023-01-10T08:37:57;10.80;99.90
11965;DHT22;6042;41.326;19.826;2023-01-10T08:40:26;10.80;99.90
11965;DHT22;6042;41.326;19.826;2023-01-10T08:42:57;10.80;99.90
11965;DHT22;6042;41.326;19.826;2023-01-10T08:45:26;10.90;99.90
11965;DHT22;6042;41.326;19.826;2023-01-10T08:47:55;10.90;99.90
11965;DHT22;6042;41.326;19.826;2023-01-10T08:50:24;10.90;99.90
11965;DHT22;6042;41.326;19.826;2023-01-10T08:52:56;10.80;99.90
11965;DHT22;6042;41.326;19.826;2023-01-10T08:55:25;10.80;99.90
11965;DHT22;6042;41.326;19.826;2023-01-10T08:57:54;10.90;99.90
11965;DHT22;6042;41.326;19.826;2023-01-10T09:00:23;10.90;99.90
11965;DHT22;6042;41.326;19.826;2023-01-10T09:02:51;10.90;99.90
11965;DHT22;6042;41.326;19.826;2023-01-10T09:05:20;11.00;99.90
11965;DHT22;6042;41.326;19.826;2023-01-10T09:07:59;11.10;99.90
11965;DHT22;6042;41.326;19.826;2023-01-10T09:10:28;11.20;99.90
11965;DHT22;6042;41.326;19.826;2023-01-10T09:12:57;11.30;99.90
11965;DHT22;6042;41.326;19.826;2023-01-10T09:15:30;11.30;99.90
11965;DHT22;6042;41.326;19.826;2023-01-10T09:18:01;11.40;99.90
11965;DHT22;6042;41.326;19.826;2023-01-10T09:20:32;11.40;99.90
11965;DHT22;6042;41.326;19.826;2023-01-10T09:23:05;11.40;99.90
11965;DHT22;6042;41.326;19.826;2023-01-10T09:25:34;11.40;99.90
11965;DHT22;6042;41.326;19.826;2023-01-10T09:28:04;11.30;99.90
11965;DHT22;6042;41.326;19.826;2023-01-10T09:30:32;11.20;99.90
11965;DHT22;6042;41.326;19.826;2023-01-10T09:33:01;11.10;99.90
11965;DHT22;6042;41.326;19.826;2023-01-10T09:35:30;11.10;99.90
11965;DHT22;6042;41.326;19.826;2023-01-10T09:38:00;11.10;99.90
11965;DHT22;6042;41.326;19.826;2023-01-10T09:40:49;11.10;99.90
11965;DHT22;6042;41.326;19.826;2023-01-10T09:43:29;10.90;99.90
11965;DHT22;6042;41.326;19.826;2023-01-10T09:46:05;11.00;99.90
11965;DHT22;6042;41.326;19.826;2023-01-10T09:48:40;11.10;99.90
11965;DHT22;6042;41.326;19.826;2023-01-10T09:51:22;11.10;99.90
11965;DHT22;6042;41.326;19.826;2023-01-10T09:53:57;11.10;99.90
11965;DHT22;6042;41.326;19.826;2023-01-10T09:56:40;11.30;99.90
11965;DHT22;6042;41.326;19.826;2023-01-10T09:59:14;11.40;99.90
11965;DHT22;6042;41.326;19.826;2023-01-10T10:01:45;11.60;99.90
11965;DHT22;6042;41.326;19.826;2023-01-10T10:04:21;11.70;99.90
11965;DHT22;6042;41.326;19.826;2023-01-10T10:06:52;11.80;99.90
11965;DHT22;6042;41.326;19.826;2023-01-10T10:09:23;11.90;99.90
11965;DHT22;6042;41.326;19.826;2023-01-10T10:12:07;12.00;99.90
11965;DHT22;6042;41.326;19.826;2023-01-10T10:14:47;12.00;99.90
11965;DHT22;6042;41.326;19.826;2023-01-10T10:17:31;12.10;99.90
11965;DHT22;6042;41.326;19.826;2023-01-10T10:20:18;12.10;99.90
11965;DHT22;6042;41.326;19.826;2023-01-10T10:23:01;12.30;99.90
11965;DHT22;6042;41.326;19.826;2023-01-10T10:25:54;12.60;99.90
11965;DHT22;6042;41.326;19.826;2023-01-10T10:34:24;13.00;99.90
11965;DHT22;6042;41.326;19.826;2023-01-10T10:36:59;13.00;99.90
11965;DHT22;6042;41.326;19.826;2023-01-10T10:39:34;13.00;99.90
11965;DHT22;6042;41.326;19.826;2023-01-10T10:42:09;13.10;99.90
11965;DHT22;6042;41.326;19.826;2023-01-10T10:44:44;13.00;99.90
11965;DHT22;6042;41.326;19.826;2023-01-10T10:47:16;13.00;99.90
11965;DHT22;6042;41.326;19.826;2023-01-10T10:49:49;12.90;99.90
11965;DHT22;6042;41.326;19.826;2023-01-10T10:52:24;13.10;99.90
11965;DHT22;6042;41.326;19.826;2023-01-10T10:54:53;13.20;99.90
11965;DHT22;6042;41.326;19.826;2023-01-10T10:57:24;13.50;99.90
11965;DHT22;6042;41.326;19.826;2023-01-10T10:59:55;13.50;99.90
11965;DHT22;6042;41.326;19.826;2023-01-10T11:02:26;13.40;99.90
11965;DHT22;6042;41.326;19.826;2023-01-10T11:05:01;13.60;99.90
11965;DHT22;6042;41.326;19.826;2023-01-10T11:07:32;13.80;99.90
11965;DHT22;6042;41.326;19.826;2023-01-10T11:10:04;13.70;99.90
11965;DHT22;6042;41.326;19.826;2023-01-10T11:12:46;13.70;99.90
11965;DHT22;6042;41.326;19.826;2023-01-10T11:15:38;14.00;99.90
11965;DHT22;6042;41.326;19.826;2023-01-10T11:18:11;14.30;99.90
11965;DHT22;6042;41.326;19.826;2023-01-10T11:20:48;14.30;99.90
11965;DHT22;6042;41.326;19.826;2023-01-10T11:23:22;14.30;99.90
11965;DHT22;6042;41.326;19.826;2023-01-10T11:25:51;14.40;99.90
11965;DHT22;6042;41.326;19.826;2023-01-10T11:28:21;14.40;99.90
11965;DHT22;6042;41.326;19.826;2023-01-10T11:30:54;14.50;99.90
11965;DHT22;6042;41.326;19.826;2023-01-10T11:33:27;14.60;99.90
11965;DHT22;6042;41.326;19.826;2023-01-10T11:36:00;14.80;99.90
11965;DHT22;6042;41.326;19.826;2023-01-10T11:38:30;15.00;99.90
11965;DHT22;6042;41.326;19.826;2023-01-10T11:41:01;15.20;99.90
11965;DHT22;6042;41.326;19.826;2023-01-10T11:43:32;14.90;99.90
11965;DHT22;6042;41.326;19.826;2023-01-10T11:46:04;14.60;99.90
11965;DHT22;6042;41.326;19.826;2023-01-10T11:48:45;14.40;99.90
11965;DHT22;6042;41.326;19.826;2023-01-10T11:51:38;14.50;99.90
11965;DHT22;6042;41.326;19.826;2023-01-10T11:54:11;14.80;99.90
11965;DHT22;6042;41.326;19.826;2023-01-10T11:56:42;15.20;99.90
11965;DHT22;6042;41.326;19.826;2023-01-10T11:59:18;15.10;99.90
11965;DHT22;6042;41.326;19.826;2023-01-10T12:01:53;15.40;99.90
11965;DHT22;6042;41.326;19.826;2023-01-10T12:04:25;15.70;99.90
11965;DHT22;6042;41.326;19.826;2023-01-10T12:06:58;15.60;99.90
11965;DHT22;6042;41.326;19.826;2023-01-10T12:09:35;15.80;99.90
11965;DHT22;6042;41.326;19.826;2023-01-10T12:12:15;15.90;99.90
11965;DHT22;6042;41.326;19.826;2023-01-10T12:14:47;15.70;99.90
11965;DHT22;6042;41.326;19.826;2023-01-10T12:17:22;15.40;99.90
11965;DHT22;6042;41.326;19.826;2023-01-10T12:19:52;15.00;99.90
11965;DHT22;6042;41.326;19.826;2023-01-10T12:22:26;14.60;99.90
11965;DHT22;6042;41.326;19.826;2023-01-10T12:24:58;14.50;99.90
11965;DHT22;6042;41.326;19.826;2023-01-10T12:27:28;14.30;99.90
11965;DHT22;6042;41.326;19.826;2023-01-10T12:30:04;14.10;99.90
11965;DHT22;6042;41.326;19.826;2023-01-10T12:32:38;14.10;99.90
11965;DHT22;6042;41.326;19.826;2023-01-10T12:35:14;14.20;99.90
11965;DHT22;6042;41.326;19.826;2023-01-10T12:37:47;13.90;99.90
11965;DHT22;6042;41.326;19.826;2023-01-10T12:40:24;13.80;99.90
11965;DHT22;6042;41.326;19.826;2023-01-10T12:42:55;13.70;99.90
11965;DHT22;6042;41.326;19.826;2023-01-10T12:45:46;13.60;99.90
11965;DHT22;6042;41.326;19.826;2023-01-10T12:48:25;13.30;99.90
11965;DHT22;6042;41.326;19.826;2023-01-10T12:50:57;13.20;99.90
11965;DHT22;6042;41.326;19.826;2023-01-10T12:53:32;12.90;99.90
11965;DHT22;6042;41.326;19.826;2023-01-10T12:56:04;12.60;99.90
11965;DHT22;6042;41.326;19.826;2023-01-10T12:58:38;11.90;99.90
11965;DHT22;6042;41.326;19.826;2023-01-10T13:01:12;11.60;99.90
11965;DHT22;6042;41.326;19.826;2023-01-10T13:03:45;11.30;99.90
11965;DHT22;6042;41.326;19.826;2023-01-10T13:06:23;11.10;99.90
11965;DHT22;6042;41.326;19.826;2023-01-10T13:08:53;10.90;99.90
11965;DHT22;6042;41.326;19.826;2023-01-10T13:11:24;10.90;99.90
11965;DHT22;6042;41.326;19.826;2023-01-10T13:14:00;10.80;99.90
11965;DHT22;6042;41.326;19.826;2023-01-10T13:16:35;10.80;99.90
11965;DHT22;6042;41.326;19.826;2023-01-10T13:19:22;10.50;99.90
11965;DHT22;6042;41.326;19.826;2023-01-10T13:22:11;10.40;99.90
11965;DHT22;6042;41.326;19.826;2023-01-10T13:24:55;10.00;99.90
11965;DHT22;6042;41.326;19.826;2023-01-10T13:27:28;9.60;99.90
11965;DHT22;6042;41.326;19.826;2023-01-10T13:29:58;9.20;99.90
11965;DHT22;6042;41.326;19.826;2023-01-10T13:32:28;9.00;99.90
11965;DHT22;6042;41.326;19.826;2023-01-10T13:35:11;8.90;99.90
11965;DHT22;6042;41.326;19.826;2023-01-10T13:37:42;9.10;99.90
11965;DHT22;6042;41.326;19.826;2023-01-10T13:40:19;9.20;99.90
11965;DHT22;6042;41.326;19.826;2023-01-10T13:46:32;9.40;99.90
11965;DHT22;6042;41.326;19.826;2023-01-10T13:49:25;9.40;99.90
11965;DHT22;6042;41.326;19.826;2023-01-10T13:52:26;9.40;99.90
11965;DHT22;6042;41.326;19.826;2023-01-10T13:54:55;9.50;99.90
11965;DHT22;6042;41.326;19.826;2023-01-10T13:57:50;9.70;99.90
11965;DHT22;6042;41.326;19.826;2023-01-10T14:00:49;10.00;99.90
11965;DHT22;6042;41.326;19.826;2023-01-10T14:03:48;10.20;99.90
11965;DHT22;6042;41.326;19.826;2023-01-10T14:06:37;10.30;99.90
11965;DHT22;6042;41.326;19.826;2023-01-10T14:09:36;10.30;99.90
11965;DHT22;6042;41.326;19.826;2023-01-10T14:12:16;10.40;99.90
11965;DHT22;6042;41.326;19.826;2023-01-10T14:14:51;10.50;99.90
11965;DHT22;6042;41.326;19.826;2023-01-10T14:17:22;10.50;99.90
11965;DHT22;6042;41.326;19.826;2023-01-10T14:20:03;10.50;99.90
11965;DHT22;6042;41.326;19.826;2023-01-10T14:22:35;10.50;99.90
11965;DHT22;6042;41.326;19.826;2023-01-10T14:25:17;10.40;99.90
11965;DHT22;6042;41.326;19.826;2023-01-10T14:27:48;10.20;99.90
11965;DHT22;6042;41.326;19.826;2023-01-10T14:30:21;10.00;99.90
11965;DHT22;6042;41.326;19.826;2023-01-10T14:32:52;10.00;99.90
11965;DHT22;6042;41.326;19.826;2023-01-10T14:35:33;9.90;99.90
11965;DHT22;6042;41.326;19.826;2023-01-10T14:38:03;9.90;99.90
11965;DHT22;6042;41.326;19.826;2023-01-10T14:40:38;9.90;99.90
11965;DHT22;6042;41.326;19.826;2023-01-10T14:43:13;9.90;99.90
11965;DHT22;6042;41.326;19.826;2023-01-10T14:45:48;9.80;99.90
11965;DHT22;6042;41.326;19.826;2023-01-10T14:48:23;9.70;99.90
11965;DHT22;6042;41.326;19.826;2023-01-10T14:51:06;9.70;99.90
11965;DHT22;6042;41.326;19.826;2023-01-10T14:53:35;9.70;99.90
11965;DHT22;6042;41.326;19.826;2023-01-10T14:56:17;9.80;99.90
11965;DHT22;6042;41.326;19.826;2023-01-10T14:58:45;9.80;99.90
11965;DHT22;6042;41.326;19.826;2023-01-10T15:01:19;9.70;99.90
11965;DHT22;6042;41.326;19.826;2023-01-10T15:03:50;9.60;99.90
11965;DHT22;6042;41.326;19.826;2023-01-10T15:06:19;9.50;99.90
11965;DHT22;6042;41.326;19.826;2023-01-10T15:08:58;9.40;99.90
11965;DHT22;6042;41.326;19.826;2023-01-10T15:11:29;9.50;99.90
11965;DHT22;6042;41.326;19.826;2023-01-10T15:14:02;9.60;99.90
11965;DHT22;6042;41.326;19.826;2023-01-10T15:16:34;9.60;99.90
11965;DHT22;6042;41.326;19.826;2023-01-10T15:19:05;9.70;99.90
11965;DHT22;6042;41.326;19.826;2023-01-10T15:21:40;9.80;99.90
11965;DHT22;6042;41.326;19.826;2023-01-10T15:24:31;9.90;99.90
11965;DHT22;6042;41.326;19.826;2023-01-10T15:27:04;9.80;99.90
11965;DHT22;6042;41.326;19.826;2023-01-10T15:29:35;9.90;99.90
11965;DHT22;6042;41.326;19.826;2023-01-10T15:32:15;9.90;99.90
11965;DHT22;6042;41.326;19.826;2023-01-10T15:34:47;9.90;99.90
11965;DHT22;6042;41.326;19.826;2023-01-10T15:37:20;9.90;99.90
11965;DHT22;6042;41.326;19.826;2023-01-10T15:39:49;9.80;99.90
11965;DHT22;6042;41.326;19.826;2023-01-10T15:42:20;9.80;99.90
11965;DHT22;6042;41.326;19.826;2023-01-10T15:44:51;9.80;99.90
11965;DHT22;6042;41.326;19.826;2023-01-10T15:47:37;9.90;99.90
11965;DHT22;6042;41.326;19.826;2023-01-10T15:50:19;9.90;99.90
11965;DHT22;6042;41.326;19.826;2023-01-10T15:52:49;9.80;99.90
11965;DHT22;6042;41.326;19.826;2023-01-10T15:55:40;9.90;99.90
11965;DHT22;6042;41.326;19.826;2023-01-10T15:58:18;9.90;99.90
11965;DHT22;6042;41.326;19.826;2023-01-10T16:00:51;9.80;99.90
11965;DHT22;6042;41.326;19.826;2023-01-10T16:03:23;9.80;99.90
11965;DHT22;6042;41.326;19.826;2023-01-10T16:05:55;9.80;99.90
11965;DHT22;6042;41.326;19.826;2023-01-10T16:08:26;9.80;99.90
11965;DHT22;6042;41.326;19.826;2023-01-10T16:10:57;9.80;99.90
11965;DHT22;6042;41.326;19.826;2023-01-10T16:13:27;9.80;99.90
11965;DHT22;6042;41.326;19.826;2023-01-10T16:15:55;9.80;99.90
11965;DHT22;6042;41.326;19.826;2023-01-10T16:18:24;9.70;99.90
11965;DHT22;6042;41.326;19.826;2023-01-10T16:20:55;9.70;99.90
11965;DHT22;6042;41.326;19.826;2023-01-10T16:23:26;9.60;99.90
11965;DHT22;6042;41.326;19.826;2023-01-10T16:25:57;9.70;99.90